sensor_id;sensor_type;location;lat;lon;timestamp;pressure;altitude;pressure_sealevel;temperature;humidity
13312;BME280;34033;48.672;9.376;2023-11-19T00:00:06;98487.75;;;9.50;100.00
13312;BME280;34033;48.672;9.376;2023-11-19T00:02:36;98492.59;;;9.57;100.00
13312;BME280;34033;48.672;9.376;2023-11-19T00:05:01;98492.19;;;9.55;100.00
13312;BME280;34033;48.672;9.376;2023-11-19T00:07:26;98504.47;;;9.47;100.00
13312;BME280;34033;48.672;9.376;2023-11-19T00:09:51;98501.25;;;9.48;100.00
13312;BME280;34033;48.672;9.376;2023-11-19T00:12:17;98502.81;;;9.42;100.00
13312;BME280;34033;48.672;9.376;2023-11-19T00:14:43;98500.81;;;9.43;100.00
13312;BME280;34033;48.672;9.376;2023-11-19T00:17:09;98500.50;;;9.48;100.00
13312;BME280;34033;48.672;9.376;2023-11-19T00:19:34;98502.94;;;9.53;100.00
13312;BME280;34033;48.672;9.376;2023-11-19T00:22:00;98495.38;;;9.53;100.00
13312;BME280;34033;48.672;9.376;2023-11-19T00:24:29;98485.78;;;9.54;100.00
13312;BME280;34033;48.672;9.376;2023-11-19T00:26:55;98475.84;;;9.57;100.00
13312;BME280;34033;48.672;9.376;2023-11-19T00:29:21;98469.50;;;9.60;100.00
13312;BME280;34033;48.672;9.376;2023-11-19T00:31:46;98473.91;;;9.61;100.00
13312;BME280;34033;48.672;9.376;2023-11-19T00:34:12;98473.16;;;9.64;100.00
13312;BME280;34033;48.672;9.376;2023-11-19T00:36:37;98470.75;;;9.66;100.00
13312;BME280;34033;48.672;9.376;2023-11-19T00:39:02;98463.19;;;9.67;100.00
13312;BME280;34033;48.672;9.376;2023-11-19T00:41:28;98468.41;;;9.68;100.00
13312;BME280;34033;48.672;9.376;2023-11-19T00:43:53;98466.78;;;9.67;100.00
13312;BME280;34033;48.672;9.376;2023-11-19T00:46:18;98469.59;;;9.71;100.00
13312;BME280;34033;48.672;9.376;2023-11-19T00:48:43;98461.66;;;9.73;100.00
13312;BME280;34033;48.672;9.376;2023-11-19T00:51:11;98450.91;;;9.75;100.00
13312;BME280;34033;48.672;9.376;2023-11-19T00:53:37;98449.75;;;9.76;100.00
13312;BME280;34033;48.672;9.376;2023-11-19T00:56:02;98457.72;;;9.77;100.00
13312;BME280;34033;48.672;9.376;2023-11-19T00:58:27;98444.94;;;9.76;100.00
13312;BME280;34033;48.672;9.376;2023-11-19T01:00:53;98449.34;;;9.77;100.00
13312;BME280;34033;48.672;9.376;2023-11-19T01:03:18;98434.56;;;9.73;100.00
13312;BME280;34033;48.672;9.376;2023-11-19T01:05:43;98428.16;;;9.73;100.00
13312;BME280;34033;48.672;9.376;2023-11-19T01:08:09;98433.38;;;9.74;100.00
13312;BME280;34033;48.672;9.376;2023-11-19T01:10:36;98429.78;;;9.77;100.00
13312;BME280;34033;48.672;9.376;2023-11-19T01:13:02;98432.19;;;9.75;100.00
13312;BME280;34033;48.672;9.376;2023-11-19T01:15:31;98414.19;;;9.69;100.00
13312;BME280;34033;48.672;9.376;2023-11-19T01:17:56;98409.78;;;9.68;100.00
13312;BME280;34033;48.672;9.376;2023-11-19T01:20:21;98404.19;;;9.65;100.00
13312;BME280;34033;48.672;9.376;2023-11-19T01:22:47;98410.50;;;9.61;100.00
13312;BME280;34033;48.672;9.376;2023-11-19T01:25:13;98406.53;;;9.59;100.00
13312;BME280;34033;48.672;9.376;2023-11-19T01:27:39;98403.66;;;9.52;100.00
13312;BME280;34033;48.672;9.376;2023-11-19T01:30:04;98405.66;;;9.55;100.00
13312;BME280;34033;48.672;9.376;2023-11-19T01:32:31;98412.06;;;9.55;100.00
13312;BME280;34033;48.672;9.376;2023-11-19T01:34:57;98397.28;;;9.55;100.00
13312;BME280;34033;48.672;9.376;2023-11-19T01:37:23;98392.50;;;9.55;100.00
13312;BME280;34033;48.672;9.376;2023-11-19T01:39:48;98386.53;;;9.53;100.00
13312;BME280;34033;48.672;9.376;2023-11-19T01:42:13;98384.56;;;9.57;100.00
13312;BME280;34033;48.672;9.376;2023-11-19T01:44:39;98390.91;;;9.54;100.00
13312;BME280;34033;48.672;9.376;2023-11-19T01:47:04;98383.75;;;9.53;100.00
13312;BME280;34033;48.672;9.376;2023-11-19T01:49:32;98379.72;;;9.51;100.00
13312;BME280;34033;48.672;9.376;2023-11-19T01:51:58;98382.94;;;9.53;100.00
13312;BME280;34033;48.672;9.376;2023-11-19T01:54:24;98376.94;;;9.54;100.00
13312;BME280;34033;48.672;9.376;2023-11-19T01:56:50;98389.78;;;9.59;100.00
13312;BME280;34033;48.672;9.376;2023-11-19T01:59:17;98384.97;;;9.59;100.00
13312;BME280;34033;48.672;9.376;2023-11-19T02:01:43;98391.41;;;9.63;100.00
13312;BME280;34033;48.672;9.376;2023-11-19T02:04:08;98390.63;;;9.67;100.00
13312;BME280;34033;48.672;9.376;2023-11-19T02:06:34;98383.47;;;9.69;100.00
13312;BME280;34033;48.672;9.376;2023-11-19T02:09:01;98374.69;;;9.67;100.00
13312;BME280;34033;48.672;9.376;2023-11-19T02:11:27;98381.88;;;9.68;100.00
13312;BME280;34033;48.672;9.376;2023-11-19T02:13:55;98376.72;;;9.70;100.00
13312;BME280;34033;48.672;9.376;2023-11-19T02:16:21;98367.47;;;9.66;100.00
13312;BME280;34033;48.672;9.376;2023-11-19T02:18:46;98371.94;;;9.74;100.00
13312;BME280;34033;48.672;9.376;2023-11-19T02:21:12;98366.81;;;9.80;100.00
13312;BME280;34033;48.672;9.376;2023-11-19T02:23:40;98373.19;;;9.80;100.00
13312;BME280;34033;48.672;9.376;2023-11-19T02:28:42;98363.66;;;9.88;100.00
13312;BME280;34033;48.672;9.376;2023-11-19T02:31:08;98364.09;;;9.90;100.00
13312;BME280;34033;48.672;9.376;2023-11-19T02:33:39;98356.91;;;9.93;100.00
13312;BME280;34033;48.672;9.376;2023-11-19T02:36:06;98360.06;;;9.88;100.00
13312;BME280;34033;48.672;9.376;2023-11-19T02:38:33;98359.72;;;9.93;100.00
13312;BME280;34033;48.672;9.376;2023-11-19T02:40:58;98360.56;;;9.97;100.00
13312;BME280;34033;48.672;9.376;2023-11-19T02:43:24;98356.22;;;10.03;100.00
13312;BME280;34033;48.672;9.376;2023-11-19T02:45:50;98356.22;;;10.07;100.00
13312;BME280;34033;48.672;9.376;2023-11-19T02:48:15;98349.47;;;10.11;100.00
13312;BME280;34033;48.672;9.376;2023-11-19T02:50:42;98353.44;;;10.10;100.00
13312;BME280;34033;48.672;9.376;2023-11-19T02:53:07;98355.06;;;10.11;100.00
13312;BME280;34033;48.672;9.376;2023-11-19T02:55:33;98365.06;;;10.16;100.00
13312;BME280;34033;48.672;9.376;2023-11-19T02:58:03;98362.25;;;10.16;100.00
13312;BME280;34033;48.672;9.376;2023-11-19T03:00:34;98368.72;;;10.20;100.00
13312;BME280;34033;48.672;9.376;2023-11-19T03:03:03;98373.53;;;10.23;100.00
13312;BME280;34033;48.672;9.376;2023-11-19T03:05:43;98371.09;;;10.21;100.00
13312;BME280;34033;48.672;9.376;2023-11-19T03:08:09;98364.75;;;10.24;100.00
13312;BME280;34033;48.672;9.376;2023-11-19T03:10:35;98366.38;;;10.29;100.00
13312;BME280;34033;48.672;9.376;2023-11-19T03:13:00;98367.56;;;10.31;100.00
13312;BME280;34033;48.672;9.376;2023-11-19T03:15:27;98364.78;;;10.28;100.00
13312;BME280;34033;48.672;9.376;2023-11-19T03:17:52;98367.13;;;10.26;100.00
13312;BME280;34033;48.672;9.376;2023-11-19T03:20:18;98374.75;;;10.29;100.00
13312;BME280;34033;48.672;9.376;2023-11-19T03:22:43;98381.91;;;10.23;100.00
13312;BME280;34033;48.672;9.376;2023-11-19T03:25:09;98381.09;;;10.22;100.00
13312;BME280;34033;48.672;9.376;2023-11-19T03:27:36;98388.72;;;10.25;100.00
13312;BME280;34033;48.672;9.376;2023-11-19T03:30:02;98381.53;;;10.28;100.00
13312;BME280;34033;48.672;9.376;2023-11-19T03:32:30;98371.16;;;10.32;100.00
13312;BME280;34033;48.672;9.376;2023-11-19T03:34:55;98383.94;;;10.33;100.00
13312;BME280;34033;48.672;9.376;2023-11-19T03:37:21;98368.78;;;10.34;100.00
13312;BME280;34033;48.672;9.376;2023-11-19T03:39:46;98378.75;;;10.31;100.00
13312;BME280;34033;48.672;9.376;2023-11-19T03:42:11;98381.16;;;10.33;100.00
13312;BME280;34033;48.672;9.376;2023-11-19T03:44:38;98376.78;;;10.35;100.00
13312;BME280;34033;48.672;9.376;2023-11-19T03:47:04;98372.81;;;10.40;100.00
13312;BME280;34033;48.672;9.376;2023-11-19T03:49:29;98382.44;;;10.46;100.00
13312;BME280;34033;48.672;9.376;2023-11-19T03:51:54;98373.25;;;10.45;100.00
13312;BME280;34033;48.672;9.376;2023-11-19T03:54:20;98362.06;;;10.45;100.00
13312;BME280;34033;48.672;9.376;2023-11-19T03:56:46;98368.06;;;10.48;100.00
13312;BME280;34033;48.672;9.376;2023-11-19T03:59:11;98356.09;;;10.47;100.00
13312;BME280;34033;48.672;9.376;2023-11-19T04:01:37;98355.31;;;10.47;100.00
13312;BME280;34033;48.672;9.376;2023-11-19T04:04:02;98352.09;;;10.48;100.00
13312;BME280;34033;48.672;9.376;2023-11-19T04:06:28;98358.09;;;10.50;100.00
13312;BME280;34033;48.672;9.376;2023-11-19T04:08:53;98362.50;;;10.51;100.00
13312;BME280;34033;48.672;9.376;2023-11-19T04:11:18;98352.94;;;10.56;100.00
13312;BME280;34033;48.672;9.376;2023-11-19T04:13:44;98351.38;;;10.58;100.00
13312;BME280;34033;48.672;9.376;2023-11-19T04:16:09;98344.97;;;10.58;100.00
13312;BME280;34033;48.672;9.376;2023-11-19T04:18:34;98335.78;;;10.57;100.00
13312;BME280;34033;48.672;9.376;2023-11-19T04:21:00;98337.78;;;10.57;100.00
13312;BME280;34033;48.672;9.376;2023-11-19T04:23:25;98348.94;;;10.57;100.00
13312;BME280;34033;48.672;9.376;2023-11-19T04:25:50;98348.16;;;10.60;100.00
13312;BME280;34033;48.672;9.376;2023-11-19T04:28:16;98361.38;;;10.63;100.00
13312;BME280;34033;48.672;9.376;2023-11-19T04:30:41;98362.59;;;10.69;100.00
13312;BME280;34033;48.672;9.376;2023-11-19T04:33:06;98357.38;;;10.67;100.00
13312;BME280;34033;48.672;9.376;2023-11-19T04:35:32;98366.19;;;10.69;100.00
13312;BME280;34033;48.672;9.376;2023-11-19T04:37:57;98353.41;;;10.72;100.00
13312;BME280;34033;48.672;9.376;2023-11-19T04:40:23;98347.00;;;10.68;100.00
13312;BME280;34033;48.672;9.376;2023-11-19T04:42:48;98352.97;;;10.70;100.00
13312;BME280;34033;48.672;9.376;2023-11-19T04:45:14;98357.81;;;10.69;100.00
13312;BME280;34033;48.672;9.376;2023-11-19T04:47:41;98356.59;;;10.70;100.00
13312;BME280;34033;48.672;9.376;2023-11-19T04:50:07;98358.19;;;10.71;100.00
13312;BME280;34033;48.672;9.376;2023-11-19T04:52:37;98356.19;;;10.72;100.00
13312;BME280;34033;48.672;9.376;2023-11-19T04:55:03;98352.22;;;10.69;100.00
13312;BME280;34033;48.672;9.376;2023-11-19T04:57:29;98348.19;;;10.70;100.00
13312;BME280;34033;48.672;9.376;2023-11-19T04:59:54;98349.41;;;10.69;100.00
13312;BME280;34033;48.672;9.376;2023-11-19T05:02:19;98339.81;;;10.70;100.00
13312;BME280;34033;48.672;9.376;2023-11-19T05:04:44;98333.81;;;10.72;100.00
13312;BME280;34033;48.672;9.376;2023-11-19T05:07:11;98355.81;;;10.73;100.00
13312;BME280;34033;48.672;9.376;2023-11-19T05:09:37;98352.25;;;10.83;100.00
13312;BME280;34033;48.672;9.376;2023-11-19T05:12:02;98347.06;;;10.85;100.00
13312;BME280;34033;48.672;9.376;2023-11-19T05:14:28;98345.84;;;10.79;100.00
13312;BME280;34033;48.672;9.376;2023-11-19T05:16:53;98338.66;;;10.78;100.00
13312;BME280;34033;48.672;9.376;2023-11-19T05:19:18;98332.69;;;10.83;100.00
13312;BME280;34033;48.672;9.376;2023-11-19T05:21:44;98334.66;;;10.83;100.00
13312;BME280;34033;48.672;9.376;2023-11-19T05:24:09;98338.69;;;10.93;100.00
13312;BME280;34033;48.672;9.376;2023-11-19T05:26:35;98328.72;;;10.95;100.00
13312;BME280;34033;48.672;9.376;2023-11-19T05:29:00;98325.91;;;10.95;100.00
13312;BME280;34033;48.672;9.376;2023-11-19T05:31:26;98336.31;;;10.98;100.00
13312;BME280;34033;48.672;9.376;2023-11-19T05:33:52;98345.50;;;10.95;100.00
13312;BME280;34033;48.672;9.376;2023-11-19T05:36:17;98341.09;;;10.91;100.00
13312;BME280;34033;48.672;9.376;2023-11-19T05:38:42;98350.28;;;10.91;100.00
13312;BME280;34033;48.672;9.376;2023-11-19T05:41:09;98354.28;;;10.97;100.00
13312;BME280;34033;48.672;9.376;2023-11-19T05:43:35;98355.09;;;11.01;100.00
13312;BME280;34033;48.672;9.376;2023-11-19T05:46:00;98348.28;;;10.99;100.00
13312;BME280;34033;48.672;9.376;2023-11-19T05:48:26;98342.72;;;11.06;100.00
13312;BME280;34033;48.672;9.376;2023-11-19T05:50:52;98346.31;;;11.03;100.00
13312;BME280;34033;48.672;9.376;2023-11-19T05:53:18;98347.53;;;11.05;100.00
13312;BME280;34033;48.672;9.376;2023-11-19T05:55:44;98345.53;;;11.06;100.00
13312;BME280;34033;48.672;9.376;2023-11-19T05:58:20;98353.91;;;11.09;100.00
13312;BME280;34033;48.672;9.376;2023-11-19T06:00:47;98354.34;;;11.11;100.00
13312;BME280;34033;48.672;9.376;2023-11-19T06:03:12;98346.34;;;11.13;100.00
13312;BME280;34033;48.672;9.376;2023-11-19T06:05:38;98353.94;;;11.16;100.00
13312;BME280;34033;48.672;9.376;2023-11-19T06:08:04;98350.75;;;11.21;100.00
13312;BME280;34033;48.672;9.376;2023-11-19T06:10:29;98365.16;;;11.30;100.00
13312;BME280;34033;48.672;9.376;2023-11-19T06:12:59;98373.97;;;11.29;100.00
13312;BME280;34033;48.672;9.376;2023-11-19T06:15:28;98377.56;;;11.29;100.00
13312;BME280;34033;48.672;9.376;2023-11-19T06:17:53;98367.59;;;11.36;100.00
13312;BME280;34033;48.672;9.376;2023-11-19T06:20:19;98371.97;;;11.37;100.00
13312;BME280;34033;48.672;9.376;2023-11-19T06:22:45;98371.56;;;11.38;100.00
13312;BME280;34033;48.672;9.376;2023-11-19T06:25:11;98361.97;;;11.43;100.00
13312;BME280;34033;48.672;9.376;2023-11-19T06:27:36;98350.41;;;11.41;100.00
13312;BME280;34033;48.672;9.376;2023-11-19T06:30:02;98349.97;;;11.42;100.00
13312;BME280;34033;48.672;9.376;2023-11-19T06:32:27;98362.78;;;11.47;100.00
13312;BME280;34033;48.672;9.376;2023-11-19T06:34:53;98357.97;;;11.44;100.00
13312;BME280;34033;48.672;9.376;2023-11-19T06:37:18;98360.38;;;11.45;100.00
13312;BME280;34033;48.672;9.376;2023-11-19T06:39:44;98359.59;;;11.45;100.00
13312;BME280;34033;48.672;9.376;2023-11-19T06:42:09;98356.41;;;11.46;100.00
13312;BME280;34033;48.672;9.376;2023-11-19T06:44:35;98361.59;;;11.44;100.00
13312;BME280;34033;48.672;9.376;2023-11-19T06:47:00;98361.97;;;11.36;100.00
13312;BME280;34033;48.672;9.376;2023-11-19T06:49:26;98367.16;;;11.37;100.00
13312;BME280;34033;48.672;9.376;2023-11-19T06:51:51;98365.16;;;11.38;100.00
13312;BME280;34033;48.672;9.376;2023-11-19T06:54:16;98372.38;;;11.42;100.00
13312;BME280;34033;48.672;9.376;2023-11-19T06:56:42;98370.00;;;11.41;100.00
13312;BME280;34033;48.672;9.376;2023-11-19T06:59:07;98364.38;;;11.41;100.00
13312;BME280;34033;48.672;9.376;2023-11-19T07:01:36;98374.38;;;11.42;100.00
13312;BME280;34033;48.672;9.376;2023-11-19T07:04:02;98379.19;;;11.48;100.00
13312;BME280;34033;48.672;9.376;2023-11-19T07:06:33;98379.97;;;11.52;100.00
13312;BME280;34033;48.672;9.376;2023-11-19T07:08:59;98389.19;;;11.56;100.00
13312;BME280;34033;48.672;9.376;2023-11-19T07:11:25;98385.97;;;11.54;100.00
13312;BME280;34033;48.672;9.376;2023-11-19T07:13:50;98388.41;;;11.56;100.00
13312;BME280;34033;48.672;9.376;2023-11-19T07:16:15;98387.59;;;11.55;100.00
13312;BME280;34033;48.672;9.376;2023-11-19T07:18:41;98390.81;;;11.57;100.00
13312;BME280;34033;48.672;9.376;2023-11-19T07:21:09;98382.41;;;11.61;100.00
13312;BME280;34033;48.672;9.376;2023-11-19T07:23:35;98396.00;;;11.66;100.00
13312;BME280;34033;48.672;9.376;2023-11-19T07:26:01;98392.81;;;11.71;100.00
13312;BME280;34033;48.672;9.376;2023-11-19T07:28:26;98392.81;;;11.75;100.00
13312;BME280;34033;48.672;9.376;2023-11-19T07:30:54;98402.81;;;11.76;100.00
13312;BME280;34033;48.672;9.376;2023-11-19T07:33:21;98394.84;;;11.78;100.00
13312;BME280;34033;48.672;9.376;2023-11-19T07:35:46;98394.84;;;11.85;100.00
13312;BME280;34033;48.672;9.376;2023-11-19T07:38:11;98400.84;;;11.83;100.00
13312;BME280;34033;48.672;9.376;2023-11-19T07:40:37;98403.63;;;11.87;100.00
13312;BME280;34033;48.672;9.376;2023-11-19T07:43:02;98384.03;;;11.87;100.00
13312;BME280;34033;48.672;9.376;2023-11-19T07:45:27;98390.03;;;11.89;100.00
13312;BME280;34033;48.672;9.376;2023-11-19T07:47:53;98393.63;;;11.93;100.00
13312;BME280;34033;48.672;9.376;2023-11-19T07:50:19;98399.25;;;12.00;100.00
13312;BME280;34033;48.672;9.376;2023-11-19T07:52:45;98390.81;;;12.03;100.00
13312;BME280;34033;48.672;9.376;2023-11-19T07:55:10;98390.84;;;12.07;100.00
13312;BME280;34033;48.672;9.376;2023-11-19T07:57:36;98395.22;;;12.04;100.00
13312;BME280;34033;48.672;9.376;2023-11-19T08:00:02;98402.06;;;12.07;100.00
13312;BME280;34033;48.672;9.376;2023-11-19T08:02:28;98388.81;;;12.11;100.00
13312;BME280;34033;48.672;9.376;2023-11-19T08:04:53;98400.03;;;12.18;100.00
13312;BME280;34033;48.672;9.376;2023-11-19T08:07:20;98389.22;;;12.13;100.00
13312;BME280;34033;48.672;9.376;2023-11-19T08:09:46;98396.03;;;12.16;100.00
13312;BME280;34033;48.672;9.376;2023-11-19T08:12:11;98404.81;;;12.28;100.00
13312;BME280;34033;48.672;9.376;2023-11-19T08:14:39;98398.78;;;12.30;100.00
13312;BME280;34033;48.672;9.376;2023-11-19T08:17:04;98375.19;;;12.34;100.00
13312;BME280;34033;48.672;9.376;2023-11-19T08:19:29;98387.97;;;12.39;100.00
13312;BME280;34033;48.672;9.376;2023-11-19T08:21:55;98398.31;;;12.70;100.00
13312;BME280;34033;48.672;9.376;2023-11-19T08:24:20;98400.28;;;12.80;100.00
13312;BME280;34033;48.672;9.376;2023-11-19T08:26:45;98406.25;;;12.86;100.00
13312;BME280;34033;48.672;9.376;2023-11-19T08:29:11;98400.25;;;12.87;100.00
13312;BME280;34033;48.672;9.376;2023-11-19T08:31:36;98385.06;;;12.78;100.00
13312;BME280;34033;48.672;9.376;2023-11-19T08:34:01;98389.09;;;12.73;100.00
13312;BME280;34033;48.672;9.376;2023-11-19T08:36:27;98394.31;;;12.71;100.00
13312;BME280;34033;48.672;9.376;2023-11-19T08:38:53;98389.09;;;12.70;100.00
13312;BME280;34033;48.672;9.376;2023-11-19T08:41:19;98394.69;;;12.77;100.00
13312;BME280;34033;48.672;9.376;2023-11-19T08:43:45;98381.84;;;12.83;100.00
13312;BME280;34033;48.672;9.376;2023-11-19T08:46:11;98387.44;;;12.86;100.00
13312;BME280;34033;48.672;9.376;2023-11-19T08:48:36;98393.41;;;12.95;100.00
13312;BME280;34033;48.672;9.376;2023-11-19T08:51:02;98413.00;;;13.13;100.00
13312;BME280;34033;48.672;9.376;2023-11-19T08:53:28;98415.75;;;13.27;100.00
13312;BME280;34033;48.672;9.376;2023-11-19T08:55:53;98398.38;;;13.47;100.00
13312;BME280;34033;48.672;9.376;2023-11-19T08:58:18;98392.34;;;13.48;100.00
13312;BME280;34033;48.672;9.376;2023-11-19T09:00:44;98400.00;;;13.41;100.00
13312;BME280;34033;48.672;9.376;2023-11-19T09:03:09;98412.25;;;13.71;100.00
13312;BME280;34033;48.672;9.376;2023-11-19T09:05:34;98398.19;;;13.75;100.00
13312;BME280;34033;48.672;9.376;2023-11-19T09:08:00;98409.13;;;13.59;100.00
13312;BME280;34033;48.672;9.376;2023-11-19T09:10:25;98402.28;;;13.63;100.00
13312;BME280;34033;48.672;9.376;2023-11-19T09:12:52;98408.28;;;13.62;100.00
13312;BME280;34033;48.672;9.376;2023-11-19T09:15:17;98403.47;;;13.66;100.00
13312;BME280;34033;48.672;9.376;2023-11-19T09:17:43;98410.25;;;13.68;100.00
13312;BME280;34033;48.672;9.376;2023-11-19T09:20:09;98416.63;;;13.76;99.92
13312;BME280;34033;48.672;9.376;2023-11-19T09:22:37;98415.88;;;13.72;100.00
13312;BME280;34033;48.672;9.376;2023-11-19T09:25:03;98417.44;;;13.73;100.00
13312;BME280;34033;48.672;9.376;2023-11-19T09:27:30;98417.84;;;13.75;100.00
13312;BME280;34033;48.672;9.376;2023-11-19T09:29:55;98411.78;;;13.80;100.00
13312;BME280;34033;48.672;9.376;2023-11-19T09:32:23;98418.59;;;13.83;99.74
13312;BME280;34033;48.672;9.376;2023-11-19T09:34:48;98412.13;;;13.89;99.19
13312;BME280;34033;48.672;9.376;2023-11-19T09:37:14;98416.88;;;13.96;98.44
13312;BME280;34033;48.672;9.376;2023-11-19T09:39:39;98415.63;;;14.00;96.77
13312;BME280;34033;48.672;9.376;2023-11-19T09:42:08;98420.94;;;13.95;96.81
13312;BME280;34033;48.672;9.376;2023-11-19T09:44:33;98420.88;;;13.98;97.20
13312;BME280;34033;48.672;9.376;2023-11-19T09:46:59;98423.66;;;14.02;96.78
13312;BME280;34033;48.672;9.376;2023-11-19T09:49:26;98418.84;;;14.02;96.67
13312;BME280;34033;48.672;9.376;2023-11-19T09:51:51;98422.41;;;14.06;96.08
13312;BME280;34033;48.672;9.376;2023-11-19T09:54:17;98420.78;;;14.09;95.92
13312;BME280;34033;48.672;9.376;2023-11-19T09:56:43;98419.53;;;14.13;95.97
13312;BME280;34033;48.672;9.376;2023-11-19T09:59:08;98410.66;;;14.18;94.62
13312;BME280;34033;48.672;9.376;2023-11-19T10:01:37;98421.09;;;14.22;95.18
13312;BME280;34033;48.672;9.376;2023-11-19T10:04:03;98412.97;;;14.31;95.56
13312;BME280;34033;48.672;9.376;2023-11-19T10:06:28;98406.59;;;14.27;94.20
13312;BME280;34033;48.672;9.376;2023-11-19T10:08:54;98409.88;;;14.18;94.98
13312;BME280;34033;48.672;9.376;2023-11-19T10:11:20;98409.75;;;14.29;96.43
13312;BME280;34033;48.672;9.376;2023-11-19T10:13:46;98404.84;;;14.43;93.98
13312;BME280;34033;48.672;9.376;2023-11-19T10:16:13;98403.53;;;14.55;92.76
13312;BME280;34033;48.672;9.376;2023-11-19T10:18:45;98389.19;;;14.42;91.96
13312;BME280;34033;48.672;9.376;2023-11-19T10:21:14;98395.56;;;14.50;92.34
13312;BME280;34033;48.672;9.376;2023-11-19T10:23:50;98380.69;;;14.83;93.22
13312;BME280;34033;48.672;9.376;2023-11-19T10:26:17;98392.13;;;15.03;89.85
13312;BME280;34033;48.672;9.376;2023-11-19T10:28:42;98398.63;;;14.96;88.37
13312;BME280;34033;48.672;9.376;2023-11-19T10:31:10;98396.31;;;14.88;89.41
13312;BME280;34033;48.672;9.376;2023-11-19T10:33:36;98400.47;;;14.76;90.53
13312;BME280;34033;48.672;9.376;2023-11-19T10:36:01;98389.59;;;14.78;90.02
13312;BME280;34033;48.672;9.376;2023-11-19T10:38:26;98404.44;;;14.79;90.24
13312;BME280;34033;48.672;9.376;2023-11-19T10:40:53;98394.06;;;14.76;88.90
13312;BME280;34033;48.672;9.376;2023-11-19T10:43:20;98396.41;;;14.81;89.95
13312;BME280;34033;48.672;9.376;2023-11-19T10:45:48;98400.75;;;14.85;89.59
13312;BME280;34033;48.672;9.376;2023-11-19T10:48:13;98403.13;;;14.90;90.18
13312;BME280;34033;48.672;9.376;2023-11-19T10:50:40;98397.06;;;14.92;89.15
13312;BME280;34033;48.672;9.376;2023-11-19T10:53:09;98388.38;;;14.79;89.24
13312;BME280;34033;48.672;9.376;2023-11-19T10:55:38;98396.81;;;14.79;90.03
13312;BME280;34033;48.672;9.376;2023-11-19T10:58:08;98388.34;;;14.83;89.55
13312;BME280;34033;48.672;9.376;2023-11-19T11:00:47;98377.78;;;14.90;88.74
13312;BME280;34033;48.672;9.376;2023-11-19T11:03:20;98373.28;;;14.96;89.03
13312;BME280;34033;48.672;9.376;2023-11-19T11:05:50;98375.09;;;15.14;88.12
13312;BME280;34033;48.672;9.376;2023-11-19T11:08:17;98362.16;;;15.16;86.38
13312;BME280;34033;48.672;9.376;2023-11-19T11:10:56;98352.97;;;15.69;88.22
13312;BME280;34033;48.672;9.376;2023-11-19T11:13:23;98357.47;;;16.37;84.30
13312;BME280;34033;48.672;9.376;2023-11-19T11:15:50;98368.50;;;16.71;79.21
13312;BME280;34033;48.672;9.376;2023-11-19T11:18:16;98366.13;;;16.69;76.90
13312;BME280;34033;48.672;9.376;2023-11-19T11:20:44;98357.66;;;16.89;77.26
13312;BME280;34033;48.672;9.376;2023-11-19T11:26:05;98358.94;;;17.04;76.16
13312;BME280;34033;48.672;9.376;2023-11-19T11:31:44;98358.28;;;16.57;77.57
13312;BME280;34033;48.672;9.376;2023-11-19T11:37:32;98366.22;;;15.96;80.74
13312;BME280;34033;48.672;9.376;2023-11-19T11:39:57;98366.28;;;15.92;81.15
13312;BME280;34033;48.672;9.376;2023-11-19T11:50:13;98374.16;;;15.51;78.17
13312;BME280;34033;48.672;9.376;2023-11-19T11:57:51;98347.34;;;15.69;74.59
13312;BME280;34033;48.672;9.376;2023-11-19T12:02:55;98361.91;;;15.64;73.13
13312;BME280;34033;48.672;9.376;2023-11-19T12:05:22;98363.66;;;15.81;74.14
13312;BME280;34033;48.672;9.376;2023-11-19T12:08:00;98353.00;;;15.93;74.23
13312;BME280;34033;48.672;9.376;2023-11-19T12:10:29;98356.94;;;15.99;74.07
13312;BME280;34033;48.672;9.376;2023-11-19T12:13:01;98354.41;;;16.04;76.94
13312;BME280;34033;48.672;9.376;2023-11-19T12:15:27;98363.28;;;16.03;73.27
13312;BME280;34033;48.672;9.376;2023-11-19T12:17:56;98352.44;;;16.01;73.74
13312;BME280;34033;48.672;9.376;2023-11-19T12:20:23;98358.81;;;16.05;72.24
13312;BME280;34033;48.672;9.376;2023-11-19T12:22:50;98356.66;;;16.13;72.59
13312;BME280;34033;48.672;9.376;2023-11-19T12:25:17;98335.56;;;16.21;70.75
13312;BME280;34033;48.672;9.376;2023-11-19T12:27:50;98337.63;;;16.40;73.73
13312;BME280;34033;48.672;9.376;2023-11-19T12:30:25;98339.22;;;16.41;72.55
13312;BME280;34033;48.672;9.376;2023-11-19T12:32:52;98336.16;;;16.32;71.30
13312;BME280;34033;48.672;9.376;2023-11-19T12:35:20;98339.13;;;16.02;70.16
13312;BME280;34033;48.672;9.376;2023-11-19T12:37:47;98330.50;;;15.89;69.62
13312;BME280;34033;48.672;9.376;2023-11-19T12:40:23;98329.66;;;15.92;68.58
13312;BME280;34033;48.672;9.376;2023-11-19T12:42:50;98326.13;;;15.84;68.77
13312;BME280;34033;48.672;9.376;2023-11-19T12:45:16;98321.41;;;15.78;69.96
13312;BME280;34033;48.672;9.376;2023-11-19T12:47:43;98331.41;;;15.82;70.62
13312;BME280;34033;48.672;9.376;2023-11-19T12:50:09;98321.13;;;15.96;69.67
13312;BME280;34033;48.672;9.376;2023-11-19T12:52:36;98317.16;;;15.93;68.77
13312;BME280;34033;48.672;9.376;2023-11-19T12:55:06;98313.75;;;16.02;70.32
13312;BME280;34033;48.672;9.376;2023-11-19T12:57:48;98303.50;;;16.11;69.15
13312;BME280;34033;48.672;9.376;2023-11-19T13:00:22;98300.88;;;16.24;68.79
13312;BME280;34033;48.672;9.376;2023-11-19T13:02:51;98291.91;;;16.49;68.87
13312;BME280;34033;48.672;9.376;2023-11-19T13:08:06;98291.56;;;16.66;66.19
13312;BME280;34033;48.672;9.376;2023-11-19T13:10:52;98299.44;;;16.55;66.58
13312;BME280;34033;48.672;9.376;2023-11-19T13:13:18;98290.97;;;16.55;66.79
13312;BME280;34033;48.672;9.376;2023-11-19T13:15:44;98287.84;;;16.50;65.92
13312;BME280;34033;48.672;9.376;2023-11-19T13:18:12;98285.41;;;16.52;66.35
13312;BME280;34033;48.672;9.376;2023-11-19T13:20:38;98289.88;;;16.49;65.59